sensor_id;sensor_type;location;lat;lon;timestamp;pressure;altitude;pressure_sealevel;temperature;humidity
85882;BME280;76395;51.392;21.182;2024-02-23T02:03:18;97504.91;;;10.06;72.14
85882;BME280;76395;51.392;21.182;2024-02-23T02:04:20;97505.38;;;10.09;72.18
85882;BME280;76395;51.392;21.182;2024-02-23T02:05:22;97507.22;;;10.09;71.62
85882;BME280;76395;51.392;21.182;2024-02-23T02:06:24;97504.72;;;10.07;71.92
85882;BME280;76395;51.392;21.182;2024-02-23T02:07:25;97511.66;;;10.08;71.58
85882;BME280;76395;51.392;21.182;2024-02-23T02:08:26;97502.03;;;10.01;72.50
85882;BME280;76395;51.392;21.182;2024-02-23T02:09:27;97505.53;;;10.01;71.99
85882;BME280;76395;51.392;21.182;2024-02-23T02:10:28;97500.09;;;10.09;72.10
85882;BME280;76395;51.392;21.182;2024-02-23T02:11:29;97505.38;;;10.09;71.67
85882;BME280;76395;51.392;21.182;2024-02-23T02:12:33;97511.50;;;10.10;71.46
85882;BME280;76395;51.392;21.182;2024-02-23T02:13:36;97507.38;;;10.07;72.55
85882;BME280;76395;51.392;21.182;2024-02-23T02:14:37;97510.84;;;10.08;72.13
85882;BME280;76395;51.392;21.182;2024-02-23T02:15:38;97507.53;;;9.99;72.30
85882;BME280;76395;51.392;21.182;2024-02-23T02:16:41;97510.41;;;10.04;72.80
85882;BME280;76395;51.392;21.182;2024-02-23T02:17:42;97514.50;;;10.07;72.26
85882;BME280;76395;51.392;21.182;2024-02-23T02:18:43;97514.16;;;10.10;72.88
85882;BME280;76395;51.392;21.182;2024-02-23T02:19:48;97511.34;;;10.18;72.38
85882;BME280;76395;51.392;21.182;2024-02-23T02:20:56;97504.81;;;10.14;72.43
85882;BME280;76395;51.392;21.182;2024-02-23T02:21:58;97509.91;;;10.15;72.07
85882;BME280;76395;51.392;21.182;2024-02-23T02:22:59;97516.19;;;10.14;72.39
85882;BME280;76395;51.392;21.182;2024-02-23T02:24:00;97511.34;;;10.18;72.22
85882;BME280;76395;51.392;21.182;2024-02-23T02:25:01;97510.53;;;10.17;72.15
85882;BME280;76395;51.392;21.182;2024-02-23T02:26:04;97514.00;;;10.18;71.86
85882;BME280;76395;51.392;21.182;2024-02-23T02:27:05;97505.84;;;10.19;72.32
85882;BME280;76395;51.392;21.182;2024-02-23T02:28:07;97502.59;;;10.24;71.71
85882;BME280;76395;51.392;21.182;2024-02-23T02:29:11;97506.06;;;10.18;72.20
85882;BME280;76395;51.392;21.182;2024-02-23T02:30:14;97505.84;;;10.19;72.26
85882;BME280;76395;51.392;21.182;2024-02-23T02:31:14;97506.47;;;10.22;71.36
85882;BME280;76395;51.392;21.182;2024-02-23T02:32:15;97509.75;;;10.24;71.48
85882;BME280;76395;51.392;21.182;2024-02-23T02:33:16;97510.19;;;10.27;71.82
85882;BME280;76395;51.392;21.182;2024-02-23T02:34:17;97513.44;;;10.29;71.97
85882;BME280;76395;51.392;21.182;2024-02-23T02:35:19;97512.44;;;10.30;72.09
85882;BME280;76395;51.392;21.182;2024-02-23T02:36:20;97515.47;;;10.27;71.79
85882;BME280;76395;51.392;21.182;2024-02-23T02:37:23;97512.41;;;10.24;71.54
85882;BME280;76395;51.392;21.182;2024-02-23T02:38:24;97513.19;;;10.24;71.27
85882;BME280;76395;51.392;21.182;2024-02-23T02:39:26;97513.81;;;10.19;71.87
85882;BME280;76395;51.392;21.182;2024-02-23T02:40:27;97512.78;;;10.20;72.47
85882;BME280;76395;51.392;21.182;2024-02-23T02:41:29;97511.38;;;10.25;72.14
85882;BME280;76395;51.392;21.182;2024-02-23T02:42:33;97513.19;;;10.24;72.27
85882;BME280;76395;51.392;21.182;2024-02-23T02:43:34;97515.44;;;10.20;71.98
85882;BME280;76395;51.392;21.182;2024-02-23T02:44:34;97521.16;;;10.24;72.48
85882;BME280;76395;51.392;21.182;2024-02-23T02:45:36;97515.44;;;10.20;72.01
85882;BME280;76395;51.392;21.182;2024-02-23T02:46:37;97518.13;;;10.27;71.61
85882;BME280;76395;51.392;21.182;2024-02-23T02:47:38;97514.44;;;10.28;71.59
85882;BME280;76395;51.392;21.182;2024-02-23T02:48:38;97517.31;;;10.27;71.80
85882;BME280;76395;51.392;21.182;2024-02-23T02:49:40;97518.28;;;10.19;72.75
85882;BME280;76395;51.392;21.182;2024-02-23T02:50:41;97518.06;;;10.20;72.20
85882;BME280;76395;51.392;21.182;2024-02-23T02:51:42;97518.91;;;10.28;72.13
85882;BME280;76395;51.392;21.182;2024-02-23T02:52:43;97519.97;;;10.33;72.08
85882;BME280;76395;51.392;21.182;2024-02-23T02:53:46;97522.63;;;10.33;71.99
85882;BME280;76395;51.392;21.182;2024-02-23T02:54:47;97518.34;;;10.32;72.16
85882;BME280;76395;51.392;21.182;2024-02-23T02:55:48;97520.38;;;10.30;72.25
85882;BME280;76395;51.392;21.182;2024-02-23T02:56:49;97522.81;;;10.32;71.53
85882;BME280;76395;51.392;21.182;2024-02-23T02:57:51;97522.19;;;10.30;72.20
85882;BME280;76395;51.392;21.182;2024-02-23T02:58:52;97523.03;;;10.30;71.68
85882;BME280;76395;51.392;21.182;2024-02-23T02:59:53;97518.34;;;10.32;71.42
85882;BME280;76395;51.392;21.182;2024-02-23T03:00:54;97518.34;;;10.32;72.06
85882;BME280;76395;51.392;21.182;2024-02-23T03:01:55;97519.78;;;10.35;72.22
85882;BME280;76395;51.392;21.182;2024-02-23T03:02:58;97514.31;;;10.36;72.15
85882;BME280;76395;51.392;21.182;2024-02-23T03:04:01;97519.59;;;10.36;71.64
85882;BME280;76395;51.392;21.182;2024-02-23T03:05:02;97514.66;;;10.33;71.46
85882;BME280;76395;51.392;21.182;2024-02-23T03:06:03;97522.25;;;10.36;72.11
85882;BME280;76395;51.392;21.182;2024-02-23T03:07:06;97512.44;;;10.30;71.42
85882;BME280;76395;51.392;21.182;2024-02-23T03:08:07;97512.28;;;10.38;72.03
85882;BME280;76395;51.392;21.182;2024-02-23T03:09:08;97513.69;;;10.34;71.59
85882;BME280;76395;51.392;21.182;2024-02-23T03:10:09;97516.31;;;10.34;71.58
85882;BME280;76395;51.392;21.182;2024-02-23T03:11:10;97508.19;;;10.36;71.65
85882;BME280;76395;51.392;21.182;2024-02-23T03:12:11;97514.31;;;10.36;71.61
85882;BME280;76395;51.392;21.182;2024-02-23T03:13:13;97519.19;;;10.33;71.66
85882;BME280;76395;51.392;21.182;2024-02-23T03:14:20;97520.16;;;10.32;71.69
85882;BME280;76395;51.392;21.182;2024-02-23T03:15:21;97519.59;;;10.36;71.65
85882;BME280;76395;51.392;21.182;2024-02-23T03:16:22;97510.22;;;10.40;71.09
85882;BME280;76395;51.392;21.182;2024-02-23T03:17:23;97511.88;;;10.41;70.92
85882;BME280;76395;51.392;21.182;2024-02-23T03:18:24;97518.16;;;10.40;71.19
85882;BME280;76395;51.392;21.182;2024-02-23T03:19:28;97518.78;;;10.36;72.30
85882;BME280;76395;51.392;21.182;2024-02-23T03:20:29;97518.78;;;10.36;71.73
85882;BME280;76395;51.392;21.182;2024-02-23T03:21:30;97519.59;;;10.36;71.65
85882;BME280;76395;51.392;21.182;2024-02-23T03:22:35;97521.41;;;10.36;72.06
85882;BME280;76395;51.392;21.182;2024-02-23T03:23:36;97522.88;;;10.38;71.43
85882;BME280;76395;51.392;21.182;2024-02-23T03:24:37;97525.47;;;10.32;72.14
85882;BME280;76395;51.392;21.182;2024-02-23T03:25:38;97525.69;;;10.37;71.75
85882;BME280;76395;51.392;21.182;2024-02-23T03:26:40;97527.97;;;10.40;71.80
85882;BME280;76395;51.392;21.182;2024-02-23T03:27:41;97526.53;;;10.37;71.49
85882;BME280;76395;51.392;21.182;2024-02-23T03:28:46;97527.78;;;10.41;71.68
85882;BME280;76395;51.392;21.182;2024-02-23T03:29:47;97526.13;;;10.40;71.94
85882;BME280;76395;51.392;21.182;2024-02-23T03:30:48;97525.53;;;10.45;72.00
85882;BME280;76395;51.392;21.182;2024-02-23T03:31:49;97532.88;;;10.43;72.03
85882;BME280;76395;51.392;21.182;2024-02-23T03:32:50;97535.31;;;10.44;71.49
85882;BME280;76395;51.392;21.182;2024-02-23T03:33:51;97531.00;;;10.37;72.06
85882;BME280;76395;51.392;21.182;2024-02-23T03:34:55;97535.72;;;10.41;72.16
85882;BME280;76395;51.392;21.182;2024-02-23T03:35:57;97531.47;;;10.47;71.56
85882;BME280;76395;51.392;21.182;2024-02-23T03:36:58;97536.13;;;10.45;71.92
85882;BME280;76395;51.392;21.182;2024-02-23T03:38:00;97528.63;;;10.48;71.60
85882;BME280;76395;51.392;21.182;2024-02-23T03:39:03;97533.09;;;10.48;71.62
85882;BME280;76395;51.392;21.182;2024-02-23T03:40:06;97533.09;;;10.48;71.52
85882;BME280;76395;51.392;21.182;2024-02-23T03:41:07;97531.81;;;10.37;71.46
85882;BME280;76395;51.392;21.182;2024-02-23T03:42:08;97539.19;;;10.42;72.43
85882;BME280;76395;51.392;21.182;2024-02-23T03:43:11;97536.53;;;10.42;71.88
85882;BME280;76395;51.392;21.182;2024-02-23T03:44:11;97534.94;;;10.47;72.35
85882;BME280;76395;51.392;21.182;2024-02-23T03:45:12;97536.97;;;10.45;72.25
85882;BME280;76395;51.392;21.182;2024-02-23T03:46:13;97540.00;;;10.42;73.36
85882;BME280;76395;51.392;21.182;2024-02-23T03:47:17;97542.69;;;10.49;72.51
85882;BME280;76395;51.392;21.182;2024-02-23T03:48:18;97541.84;;;10.48;72.65
85882;BME280;76395;51.392;21.182;2024-02-23T03:49:19;97546.53;;;10.46;73.19
85882;BME280;76395;51.392;21.182;2024-02-23T03:50:20;97540.03;;;10.49;73.09
85882;BME280;76395;51.392;21.182;2024-02-23T03:51:21;97540.84;;;10.49;72.69
85882;BME280;76395;51.392;21.182;2024-02-23T03:52:22;97545.88;;;10.38;72.78
85882;BME280;76395;51.392;21.182;2024-02-23T03:53:23;97543.88;;;10.40;73.48
85882;BME280;76395;51.392;21.182;2024-02-23T03:54:24;97543.66;;;10.41;73.29
85882;BME280;76395;51.392;21.182;2024-02-23T03:55:25;97545.84;;;10.31;72.89
85882;BME280;76395;51.392;21.182;2024-02-23T03:56:26;97552.78;;;10.32;74.08
85882;BME280;76395;51.392;21.182;2024-02-23T03:57:26;97543.19;;;10.31;73.25
85882;BME280;76395;51.392;21.182;2024-02-23T03:58:27;97548.75;;;10.36;74.27
85882;BME280;76395;51.392;21.182;2024-02-23T03:59:29;97550.34;;;10.31;74.75
85882;BME280;76395;51.392;21.182;2024-02-23T04:00:31;97549.03;;;10.20;73.96
85882;BME280;76395;51.392;21.182;2024-02-23T04:01:32;97550.34;;;10.31;74.28
85882;BME280;76395;51.392;21.182;2024-02-23T04:02:34;97553.22;;;10.36;74.76
85882;BME280;76395;51.392;21.182;2024-02-23T04:03:38;97560.72;;;10.32;74.51
85882;BME280;76395;51.392;21.182;2024-02-23T04:04:39;97561.94;;;10.30;74.56
85882;BME280;76395;51.392;21.182;2024-02-23T04:05:39;97558.72;;;10.34;74.09
85882;BME280;76395;51.392;21.182;2024-02-23T04:06:42;97550.53;;;10.29;73.94
85882;BME280;76395;51.392;21.182;2024-02-23T04:07:43;97552.78;;;10.32;74.52
85882;BME280;76395;51.392;21.182;2024-02-23T04:08:45;97553.41;;;10.34;74.71
85882;BME280;76395;51.392;21.182;2024-02-23T04:09:46;97545.47;;;10.34;74.50
85882;BME280;76395;51.392;21.182;2024-02-23T04:10:54;97547.88;;;10.29;73.73
85882;BME280;76395;51.392;21.182;2024-02-23T04:11:55;97547.69;;;10.31;74.63
85882;BME280;76395;51.392;21.182;2024-02-23T04:12:57;97549.72;;;10.29;74.34
85882;BME280;76395;51.392;21.182;2024-02-23T04:14:00;97550.91;;;10.26;74.36
85882;BME280;76395;51.392;21.182;2024-02-23T04:15:01;97542.53;;;10.23;74.88
85882;BME280;76395;51.392;21.182;2024-02-23T04:16:03;97552.06;;;10.17;75.42
85882;BME280;76395;51.392;21.182;2024-02-23T04:17:03;97548.44;;;10.18;74.68
85882;BME280;76395;51.392;21.182;2024-02-23T04:18:05;97548.44;;;10.18;75.46
85882;BME280;76395;51.392;21.182;2024-02-23T04:19:06;97551.88;;;10.18;75.08
85882;BME280;76395;51.392;21.182;2024-02-23T04:20:09;97550.25;;;10.17;74.80
85882;BME280;76395;51.392;21.182;2024-02-23T04:21:10;97556.53;;;10.16;74.84
85882;BME280;76395;51.392;21.182;2024-02-23T04:22:11;97554.28;;;10.13;75.47
85882;BME280;76395;51.392;21.182;2024-02-23T04:23:13;97550.81;;;10.13;75.62
85882;BME280;76395;51.392;21.182;2024-02-23T04:24:15;97557.78;;;10.20;75.72
85882;BME280;76395;51.392;21.182;2024-02-23T04:25:16;97548.03;;;10.21;75.27
85882;BME280;76395;51.392;21.182;2024-02-23T04:26:17;97551.31;;;10.23;74.92
85882;BME280;76395;51.392;21.182;2024-02-23T04:27:18;97551.94;;;10.25;74.48
85882;BME280;76395;51.392;21.182;2024-02-23T04:28:20;97556.59;;;10.23;75.05
85882;BME280;76395;51.392;21.182;2024-02-23T04:29:21;97556.59;;;10.23;75.33
85882;BME280;76395;51.392;21.182;2024-02-23T04:30:22;97560.25;;;10.22;75.13
85882;BME280;76395;51.392;21.182;2024-02-23T04:31:23;97554.59;;;10.25;75.95
85882;BME280;76395;51.392;21.182;2024-02-23T04:32:26;97564.78;;;10.28;75.29
85882;BME280;76395;51.392;21.182;2024-02-23T04:33:28;97561.94;;;10.30;74.62
85882;BME280;76395;51.392;21.182;2024-02-23T04:34:29;97566.59;;;10.28;74.65
85882;BME280;76395;51.392;21.182;2024-02-23T04:35:30;97562.13;;;10.28;74.61
85882;BME280;76395;51.392;21.182;2024-02-23T04:36:31;97563.53;;;10.24;75.06
85882;BME280;76395;51.392;21.182;2024-02-23T04:37:34;97566.78;;;10.26;74.79
85882;BME280;76395;51.392;21.182;2024-02-23T04:38:35;97560.88;;;10.24;74.99
85882;BME280;76395;51.392;21.182;2024-02-23T04:39:36;97567.41;;;10.28;74.50
85882;BME280;76395;51.392;21.182;2024-02-23T04:40:38;97574.53;;;10.28;74.61
85882;BME280;76395;51.392;21.182;2024-02-23T04:41:39;97564.16;;;10.26;75.56
85882;BME280;76395;51.392;21.182;2024-02-23T04:42:43;97572.50;;;10.23;75.79
85882;BME280;76395;51.392;21.182;2024-02-23T04:43:44;97579.81;;;10.21;75.04
85882;BME280;76395;51.392;21.182;2024-02-23T04:44:45;97578.41;;;10.25;74.66
85882;BME280;76395;51.392;21.182;2024-02-23T04:45:47;97580.63;;;10.22;75.26
85882;BME280;76395;51.392;21.182;2024-02-23T04:46:48;97585.50;;;10.18;74.92
85882;BME280;76395;51.392;21.182;2024-02-23T04:47:49;97578.16;;;10.20;74.85
85882;BME280;76395;51.392;21.182;2024-02-23T04:48:50;97583.91;;;10.24;74.71
85882;BME280;76395;51.392;21.182;2024-02-23T04:49:51;97582.06;;;10.24;75.30
85882;BME280;76395;51.392;21.182;2024-02-23T04:50:52;97581.44;;;10.22;75.14
85882;BME280;76395;51.392;21.182;2024-02-23T04:51:53;97580.81;;;10.20;75.87
85882;BME280;76395;51.392;21.182;2024-02-23T04:52:55;97586.72;;;10.22;75.37
85882;BME280;76395;51.392;21.182;2024-02-23T04:53:59;97579.81;;;10.21;75.52
85882;BME280;76395;51.392;21.182;2024-02-23T04:55:02;97583.44;;;10.20;75.66
85882;BME280;76395;51.392;21.182;2024-02-23T04:56:04;97576.13;;;10.22;75.07
85882;BME280;76395;51.392;21.182;2024-02-23T04:57:05;97581.25;;;10.24;76.05
85882;BME280;76395;51.392;21.182;2024-02-23T04:58:06;97580.03;;;10.26;75.44
85882;BME280;76395;51.392;21.182;2024-02-23T04:59:08;97574.13;;;10.24;75.01
85882;BME280;76395;51.392;21.182;2024-02-23T05:00:10;97579.41;;;10.24;74.63
85882;BME280;76395;51.392;21.182;2024-02-23T05:01:12;97577.78;;;10.23;75.46
85882;BME280;76395;51.392;21.182;2024-02-23T05:02:13;97580.03;;;10.26;75.66
85882;BME280;76395;51.392;21.182;2024-02-23T05:03:16;97588.63;;;10.28;75.02
85882;BME280;76395;51.392;21.182;2024-02-23T05:04:17;97583.84;;;10.17;74.93
85882;BME280;76395;51.392;21.182;2024-02-23T05:05:18;97589.56;;;10.20;75.31
85882;BME280;76395;51.392;21.182;2024-02-23T05:06:23;97590.63;;;10.26;75.01
85882;BME280;76395;51.392;21.182;2024-02-23T05:07:24;97587.63;;;10.29;74.52
85882;BME280;76395;51.392;21.182;2024-02-23T05:08:25;97583.94;;;10.30;74.85
85882;BME280;76395;51.392;21.182;2024-02-23T05:09:28;97591.66;;;10.25;75.80
85882;BME280;76395;51.392;21.182;2024-02-23T05:10:30;97591.25;;;10.28;75.56
85882;BME280;76395;51.392;21.182;2024-02-23T05:11:30;97591.06;;;10.30;75.50
85882;BME280;76395;51.392;21.182;2024-02-23T05:12:31;97594.53;;;10.30;74.97
85882;BME280;76395;51.392;21.182;2024-02-23T05:13:34;97587.16;;;10.26;75.42
85882;BME280;76395;51.392;21.182;2024-02-23T05:14:35;97596.56;;;10.28;75.21
85882;BME280;76395;51.392;21.182;2024-02-23T05:15:36;97589.44;;;10.29;76.48
85882;BME280;76395;51.392;21.182;2024-02-23T05:16:40;97588.63;;;10.28;76.00
85882;BME280;76395;51.392;21.182;2024-02-23T05:17:41;97595.69;;;10.21;76.50
85882;BME280;76395;51.392;21.182;2024-02-23T05:18:43;97589.22;;;10.24;76.35
85882;BME280;76395;51.392;21.182;2024-02-23T05:19:45;97601.84;;;10.28;75.72
85882;BME280;76395;51.392;21.182;2024-02-23T05:20:47;97595.31;;;10.24;76.12
85882;BME280;76395;51.392;21.182;2024-02-23T05:21:48;97608.75;;;10.23;76.37
85882;BME280;76395;51.392;21.182;2024-02-23T05:22:48;97608.94;;;10.21;76.79
85882;BME280;76395;51.392;21.182;2024-02-23T05:23:49;97607.28;;;10.20;76.61
85882;BME280;76395;51.392;21.182;2024-02-23T05:24:50;97613.63;;;10.26;76.92
85882;BME280;76395;51.392;21.182;2024-02-23T05:25:58;97613.19;;;10.15;77.29
85882;BME280;76395;51.392;21.182;2024-02-23T05:27:00;97612.78;;;10.18;77.43
85882;BME280;76395;51.392;21.182;2024-02-23T05:28:03;97622.38;;;10.19;77.69
85882;BME280;76395;51.392;21.182;2024-02-23T05:29:05;97622.19;;;10.21;77.66
85882;BME280;76395;51.392;21.182;2024-02-23T05:30:10;97619.53;;;10.21;78.17
85882;BME280;76395;51.392;21.182;2024-02-23T05:31:11;97618.50;;;10.22;78.01
85882;BME280;76395;51.392;21.182;2024-02-23T05:32:12;97623.44;;;10.25;78.15
85882;BME280;76395;51.392;21.182;2024-02-23T05:33:12;97619.56;;;10.28;78.37
85882;BME280;76395;51.392;21.182;2024-02-23T05:34:14;97629.94;;;10.23;78.92
85882;BME280;76395;51.392;21.182;2024-02-23T05:35:18;97623.63;;;10.24;78.56
85882;BME280;76395;51.392;21.182;2024-02-23T05:36:20;97621.31;;;10.14;78.93
85882;BME280;76395;51.392;21.182;2024-02-23T05:37:23;97622.63;;;10.25;78.47
85882;BME280;76395;51.392;21.182;2024-02-23T05:38:25;97627.09;;;10.24;78.72
85882;BME280;76395;51.392;21.182;2024-02-23T05:39:25;97630.56;;;10.25;78.98
85882;BME280;76395;51.392;21.182;2024-02-23T05:40:28;97630.97;;;10.22;78.57
85882;BME280;76395;51.392;21.182;2024-02-23T05:41:29;97637.31;;;10.27;79.14
85882;BME280;76395;51.392;21.182;2024-02-23T05:42:31;97642.09;;;10.17;79.72
85882;BME280;76395;51.392;21.182;2024-02-23T05:43:34;97646.56;;;10.16;78.67
85882;BME280;76395;51.392;21.182;2024-02-23T05:44:35;97644.81;;;10.24;78.98
85882;BME280;76395;51.392;21.182;2024-02-23T05:45:38;97647.28;;;10.25;78.61
85882;BME280;76395;51.392;21.182;2024-02-23T05:46:42;97654.00;;;10.06;79.24
85882;BME280;76395;51.392;21.182;2024-02-23T05:47:44;97649.81;;;10.12;79.22
85882;BME280;76395;51.392;21.182;2024-02-23T05:48:46;97650.66;;;10.12;79.64
85882;BME280;76395;51.392;21.182;2024-02-23T05:49:47;97657.25;;;10.23;78.76
85882;BME280;76395;51.392;21.182;2024-02-23T05:50:48;97655.59;;;10.22;78.73
85882;BME280;76395;51.392;21.182;2024-02-23T05:51:49;97655.41;;;10.24;78.70
85882;BME280;76395;51.392;21.182;2024-02-23T05:52:51;97665.13;;;10.16;79.60
85882;BME280;76395;51.392;21.182;2024-02-23T05:53:53;97657.25;;;10.23;79.56
85882;BME280;76395;51.392;21.182;2024-02-23T05:54:55;97661.50;;;10.24;79.42
85882;BME280;76395;51.392;21.182;2024-02-23T05:55:56;97667.41;;;10.19;80.15
85882;BME280;76395;51.392;21.182;2024-02-23T05:56:57;97669.41;;;10.17;80.37
85882;BME280;76395;51.392;21.182;2024-02-23T05:57:59;97662.09;;;10.19;80.30
85882;BME280;76395;51.392;21.182;2024-02-23T05:59:00;97674.72;;;10.17;80.01
85882;BME280;76395;51.392;21.182;2024-02-23T06:00:01;97670.47;;;10.23;79.61
85882;BME280;76395;51.392;21.182;2024-02-23T06:01:01;97678.22;;;10.25;80.04
85882;BME280;76395;51.392;21.182;2024-02-23T06:02:02;97668.47;;;10.25;80.60
85882;BME280;76395;51.392;21.182;2024-02-23T06:03:04;97678.78;;;10.20;80.23
85882;BME280;76395;51.392;21.182;2024-02-23T06:04:05;97678.44;;;10.23;80.05
85882;BME280;76395;51.392;21.182;2024-02-23T06:05:07;97669.47;;;10.24;80.28
85882;BME280;76395;51.392;21.182;2024-02-23T06:06:09;97678.78;;;10.20;80.90
85882;BME280;76395;51.392;21.182;2024-02-23T06:07:13;97671.63;;;10.14;80.44
85882;BME280;76395;51.392;21.182;2024-02-23T06:08:16;97677.28;;;10.11;79.71
85882;BME280;76395;51.392;21.182;2024-02-23T06:09:17;97680.28;;;10.08;80.86
85882;BME280;76395;51.392;21.182;2024-02-23T06:10:19;97673.19;;;10.08;81.05
85882;BME280;76395;51.392;21.182;2024-02-23T06:11:20;97678.84;;;10.05;81.60
85882;BME280;76395;51.392;21.182;2024-02-23T06:12:22;97675.41;;;10.05;81.38
85882;BME280;76395;51.392;21.182;2024-02-23T06:13:22;97680.06;;;10.03;81.45
85882;BME280;76395;51.392;21.182;2024-02-23T06:14:24;97686.25;;;10.10;81.53
85882;BME280;76395;51.392;21.182;2024-02-23T06:15:25;97688.06;;;10.09;81.13
85882;BME280;76395;51.392;21.182;2024-02-23T06:16:26;97684.25;;;10.12;81.79
85882;BME280;76395;51.392;21.182;2024-02-23T06:17:27;97687.28;;;10.09;81.63
85882;BME280;76395;51.392;21.182;2024-02-23T06:18:28;97692.06;;;10.05;82.16
85882;BME280;76395;51.392;21.182;2024-02-23T06:19:29;97689.25;;;10.07;82.01
85882;BME280;76395;51.392;21.182;2024-02-23T06:20:30;97687.91;;;9.96;81.64
85882;BME280;76395;51.392;21.182;2024-02-23T06:21:32;97695.50;;;9.99;81.88
85882;BME280;76395;51.392;21.182;2024-02-23T06:22:34;97699.16;;;9.98;81.85
85882;BME280;76395;51.392;21.182;2024-02-23T06:23:35;97700.22;;;10.04;81.51
85882;BME280;76395;51.392;21.182;2024-02-23T06:24:36;97701.88;;;10.05;82.04
85882;BME280;76395;51.392;21.182;2024-02-23T06:25:37;97700.41;;;10.02;82.58
85882;BME280;76395;51.392;21.182;2024-02-23T06:26:37;97706.34;;;10.04;81.95
85882;BME280;76395;51.392;21.182;2024-02-23T06:27:39;97709.25;;;9.88;82.87
85882;BME280;76395;51.392;21.182;2024-02-23T06:28:40;97707.84;;;9.92;83.24
85882;BME280;76395;51.392;21.182;2024-02-23T06:29:43;97705.66;;;9.96;83.28
85882;BME280;76395;51.392;21.182;2024-02-23T06:30:44;97712.56;;;9.97;82.81
85882;BME280;76395;51.392;21.182;2024-02-23T06:31:48;97713.31;;;9.91;83.51
85882;BME280;76395;51.392;21.182;2024-02-23T06:32:50;97708.66;;;9.93;82.85
85882;BME280;76395;51.392;21.182;2024-02-23T06:33:51;97712.31;;;9.92;83.13
85882;BME280;76395;51.392;21.182;2024-02-23T06:34:53;97708.03;;;9.91;83.24
85882;BME280;76395;51.392;21.182;2024-02-23T06:35:56;97716.59;;;9.93;82.33
85882;BME280;76395;51.392;21.182;2024-02-23T06:36:57;97708.31;;;9.96;83.28
85882;BME280;76395;51.392;21.182;2024-02-23T06:37:58;97714.97;;;9.92;83.17
85882;BME280;76395;51.392;21.182;2024-02-23T06:39:01;97719.44;;;9.91;83.25
85882;BME280;76395;51.392;21.182;2024-02-23T06:40:02;97720.03;;;9.87;83.27
85882;BME280;76395;51.392;21.182;2024-02-23T06:41:07;97722.09;;;9.91;83.40
85882;BME280;76395;51.392;21.182;2024-02-23T06:42:12;97714.78;;;9.93;83.90
85882;BME280;76395;51.392;21.182;2024-02-23T06:43:13;97717.63;;;9.92;83.88
85882;BME280;76395;51.392;21.182;2024-02-23T06:44:15;97722.91;;;9.92;84.22
85882;BME280;76395;51.392;21.182;2024-02-23T06:45:17;97733.25;;;9.87;83.69
85882;BME280;76395;51.392;21.182;2024-02-23T06:46:19;97722.09;;;9.91;83.72
85882;BME280;76395;51.392;21.182;2024-02-23T06:47:22;97730.31;;;9.82;83.93
85882;BME280;76395;51.392;21.182;2024-02-23T06:48:23;97723.31;;;9.89;84.28
85882;BME280;76395;51.392;21.182;2024-02-23T06:49:28;97729.19;;;9.91;84.20
85882;BME280;76395;51.392;21.182;2024-02-23T06:50:29;97730.22;;;9.90;83.84
85882;BME280;76395;51.392;21.182;2024-02-23T06:51:32;97733.50;;;9.92;84.68
85882;BME280;76395;51.392;21.182;2024-02-23T06:52:33;97730.84;;;9.92;84.19
85882;BME280;76395;51.392;21.182;2024-02-23T06:53:35;97739.53;;;9.86;83.78
85882;BME280;76395;51.392;21.182;2024-02-23T06:54:36;97738.59;;;9.93;84.05
85882;BME280;76395;51.392;21.182;2024-02-23T06:55:37;97741.50;;;9.98;84.18
85882;BME280;76395;51.392;21.182;2024-02-23T06:56:38;97737.66;;;10.01;83.57
85882;BME280;76395;51.392;21.182;2024-02-23T06:57:39;97750.28;;;9.99;83.44
85882;BME280;76395;51.392;21.182;2024-02-23T06:58:40;97745.72;;;9.93;84.29
85882;BME280;76395;51.392;21.182;2024-02-23T06:59:40;97750.03;;;9.94;84.11
85882;BME280;76395;51.392;21.182;2024-02-23T07:00:42;97745.81;;;9.99;83.72
85882;BME280;76395;51.392;21.182;2024-02-23T07:01:50;97751.44;;;9.96;83.77
85882;BME280;76395;51.392;21.182;2024-02-23T07:02:51;97751.00;;;9.93;83.63
85882;BME280;76395;51.392;21.182;2024-02-23T07:03:56;97749.00;;;9.95;84.08
85882;BME280;76395;51.392;21.182;2024-02-23T07:04:57;97753.16;;;10.04;83.47
85882;BME280;76395;51.392;21.182;2024-02-23T07:06:02;97745.81;;;9.99;83.29
85882;BME280;76395;51.392;21.182;2024-02-23T07:07:03;97749.00;;;9.95;84.43
85882;BME280;76395;51.392;21.182;2024-02-23T07:08:08;97758.78;;;9.94;84.67
85882;BME280;76395;51.392;21.182;2024-02-23T07:09:10;97763.31;;;10.00;83.86
85882;BME280;76395;51.392;21.182;2024-02-23T07:10:11;97763.00;;;9.89;84.42
85882;BME280;76395;51.392;21.182;2024-02-23T07:11:14;97761.59;;;9.93;83.77
85882;BME280;76395;51.392;21.182;2024-02-23T07:12:18;97762.03;;;9.96;83.86
85882;BME280;76395;51.392;21.182;2024-02-23T07:13:19;97762.00;;;9.90;84.25
85882;BME280;76395;51.392;21.182;2024-02-23T07:14:21;97755.88;;;9.89;84.78
85882;BME280;76395;51.392;21.182;2024-02-23T07:15:23;97765.53;;;9.97;84.94
85882;BME280;76395;51.392;21.182;2024-02-23T07:16:25;97762.25;;;9.95;83.89
85882;BME280;76395;51.392;21.182;2024-02-23T07:17:28;97774.28;;;9.97;84.98
85882;BME280;76395;51.392;21.182;2024-02-23T07:18:29;97773.91;;;10.00;84.52
85882;BME280;76395;51.392;21.182;2024-02-23T07:19:29;97765.03;;;10.08;84.20
85882;BME280;76395;51.392;21.182;2024-02-23T07:20:30;97771.81;;;10.10;84.60
85882;BME280;76395;51.392;21.182;2024-02-23T07:21:31;97771.69;;;10.04;83.98
85882;BME280;76395;51.392;21.182;2024-02-23T07:22:32;97769.69;;;10.06;83.85
85882;BME280;76395;51.392;21.182;2024-02-23T07:23:33;97772.97;;;10.08;84.64
85882;BME280;76395;51.392;21.182;2024-02-23T07:24:34;97768.69;;;10.07;84.80
85882;BME280;76395;51.392;21.182;2024-02-23T07:25:35;97767.16;;;10.12;83.56
85882;BME280;76395;51.392;21.182;2024-02-23T07:26:36;97767.75;;;10.14;84.08